createdAt,value
2022-08-27T00:00:04.817Z,9.661517
2022-08-27T00:01:04.810Z,9.661510
2022-08-27T00:02:05.888Z,9.661517
2022-08-27T00:03:04.800Z,9.661468
2022-08-27T00:04:04.821Z,9.661519
2022-08-27T00:05:04.804Z,9.661475
2022-08-27T00:06:04.796Z,9.661477
2022-08-27T00:07:04.869Z,9.661448
2022-08-27T00:08:04.765Z,9.661589
2022-08-27T00:09:04.753Z,9.661506
2022-08-27T00:10:04.760Z,9.661503
2022-08-27T00:11:04.757Z,9.661522
2022-08-27T00:12:04.744Z,9.661521
2022-08-27T00:13:05.758Z,9.661473
2022-08-27T00:14:04.774Z,9.661476
2022-08-27T00:15:04.742Z,9.661551
2022-08-27T00:16:04.748Z,9.661406
2022-08-27T00:17:04.737Z,9.661514
2022-08-27T00:18:04.717Z,9.661356
2022-08-27T00:19:04.725Z,9.661552
2022-08-27T00:20:04.707Z,9.661466
2022-08-27T00:21:04.693Z,9.661446
2022-08-27T00:22:04.685Z,9.661423
2022-08-27T00:23:04.709Z,9.661452
2022-08-27T00:24:04.694Z,9.661524
2022-08-27T00:25:04.687Z,9.661549
2022-08-27T00:26:04.675Z,9.661537
2022-08-27T00:27:04.650Z,9.661554
2022-08-27T00:28:05.375Z,9.661468
2022-08-27T00:29:04.662Z,9.661550
2022-08-27T00:30:04.644Z,9.661523
2022-08-27T00:31:04.628Z,9.661567
2022-08-27T00:32:04.674Z,9.661601
2022-08-27T00:33:04.617Z,9.661525
2022-08-27T00:34:04.732Z,9.661574
2022-08-27T00:35:04.612Z,9.661469
2022-08-27T00:36:04.614Z,9.661494
2022-08-27T00:37:04.596Z,9.661479
2022-08-27T00:38:04.595Z,9.661429
2022-08-27T00:39:04.730Z,9.661446
2022-08-27T00:40:04.715Z,9.661502
2022-08-27T00:41:04.604Z,9.661533
2022-08-27T00:42:04.573Z,9.661457
2022-08-27T00:43:04.563Z,9.661459
2022-08-27T00:44:04.587Z,9.661518
2022-08-27T00:45:04.585Z,9.661551
2022-08-27T00:46:04.587Z,9.661492
2022-08-27T00:47:04.537Z,9.661616
2022-08-27T00:48:04.554Z,9.661577
2022-08-27T00:49:04.525Z,9.661596
2022-08-27T00:50:04.553Z,9.661606
2022-08-27T00:51:04.500Z,9.661588
2022-08-27T00:52:04.531Z,9.661565
2022-08-27T00:53:04.519Z,9.661451
2022-08-27T00:54:04.502Z,9.661532
2022-08-27T00:55:04.521Z,9.661554
2022-08-27T00:56:04.523Z,9.661653
2022-08-27T00:57:04.493Z,9.661605
2022-08-27T00:58:04.966Z,9.661761
2022-08-27T00:59:04.482Z,9.661611
2022-08-27T01:00:04.477Z,9.661521
2022-08-27T01:01:04.540Z,9.661465
2022-08-27T01:02:04.557Z,9.661580
2022-08-27T01:03:04.437Z,9.661488
2022-08-27T01:04:04.447Z,9.661463
2022-08-27T01:05:04.458Z,9.661615
2022-08-27T01:06:04.427Z,9.661443
2022-08-27T01:07:04.454Z,9.661566
2022-08-27T01:08:04.431Z,9.661589
2022-08-27T01:09:04.417Z,9.661434
2022-08-27T01:10:04.424Z,9.661421
2022-08-27T01:11:04.406Z,9.661642
2022-08-27T01:12:04.441Z,9.661462
2022-08-27T01:13:04.391Z,9.661581
2022-08-27T01:14:04.384Z,9.661681
2022-08-27T01:15:04.454Z,9.661718
2022-08-27T01:16:04.438Z,9.661680
2022-08-27T01:17:04.371Z,9.661736
2022-08-27T01:18:04.486Z,9.661776
2022-08-27T01:19:04.399Z,9.661649
2022-08-27T01:20:04.362Z,9.661613
2022-08-27T01:21:04.357Z,9.661623
2022-08-27T01:22:04.357Z,9.661402
2022-08-27T01:23:04.385Z,9.661489
2022-08-27T01:24:04.336Z,9.661399
2022-08-27T01:25:04.328Z,9.661181
2022-08-27T01:26:04.348Z,9.661882
2022-08-27T01:27:04.309Z,9.662239
2022-08-27T01:28:04.307Z,9.661739
2022-08-27T01:29:04.377Z,9.661748
2022-08-27T01:30:04.312Z,9.661798
2022-08-27T01:31:04.328Z,9.661482
2022-08-27T01:32:04.290Z,9.661830
2022-08-27T01:33:04.300Z,9.661813
2022-08-27T01:34:04.405Z,9.661712
2022-08-27T01:35:04.268Z,9.661806
2022-08-27T01:36:05.202Z,9.661636
2022-08-27T01:37:04.254Z,9.661466
2022-08-27T01:38:04.254Z,9.662068
2022-08-27T01:39:04.268Z,9.662449
2022-08-27T01:40:04.361Z,9.662605
2022-08-27T01:41:04.252Z,9.662236
2022-08-27T01:42:04.244Z,9.661827
2022-08-27T01:43:04.235Z,9.661520
2022-08-27T01:44:04.245Z,9.661429
2022-08-27T01:45:05.889Z,9.661489
2022-08-27T01:46:04.207Z,9.661577
2022-08-27T01:47:04.266Z,9.661629
2022-08-27T01:48:04.271Z,9.661636
2022-08-27T01:49:04.209Z,9.661477
2022-08-27T01:50:04.201Z,9.661467
2022-08-27T01:51:04.198Z,9.661574
2022-08-27T01:52:04.173Z,9.661303
2022-08-27T01:53:04.178Z,9.661640
2022-08-27T01:54:04.165Z,9.661420
2022-08-27T01:55:04.214Z,9.661644
2022-08-27T01:56:04.183Z,9.661767
2022-08-27T01:57:04.179Z,9.662012
2022-08-27T01:58:04.189Z,9.662140
2022-08-27T01:59:04.701Z,9.662148
2022-08-27T02:00:04.148Z,9.662209
2022-08-27T02:01:04.216Z,9.662073
2022-08-27T02:02:04.212Z,9.661930
2022-08-27T02:03:04.115Z,9.661840
2022-08-27T02:04:04.132Z,9.661701
2022-08-27T02:05:04.100Z,9.661410
2022-08-27T02:06:04.123Z,9.661340
2022-08-27T02:07:04.123Z,9.661697
2022-08-27T02:08:04.131Z,9.661372
2022-08-27T02:09:04.092Z,9.661413
2022-08-27T02:10:04.076Z,9.661526
2022-08-27T02:11:04.061Z,9.661522
2022-08-27T02:12:04.055Z,9.661526
2022-08-27T02:13:04.068Z,9.661496
2022-08-27T02:14:04.064Z,9.661455
2022-08-27T02:15:05.048Z,9.661515
2022-08-27T02:16:04.087Z,9.661488
2022-08-27T02:17:04.046Z,9.661515
2022-08-27T02:18:04.141Z,9.661416
2022-08-27T02:19:04.022Z,9.661473
2022-08-27T02:20:04.017Z,9.661420
2022-08-27T02:21:04.019Z,9.661462
2022-08-27T02:22:04.021Z,9.661457
2022-08-27T02:23:03.990Z,9.661467
2022-08-27T02:24:04.031Z,9.661522
2022-08-27T02:25:04.016Z,9.661447
2022-08-27T02:26:03.993Z,9.661393
2022-08-27T02:27:03.971Z,9.661390
2022-08-27T02:28:03.980Z,9.661428
2022-08-27T02:29:04.102Z,9.661469
2022-08-27T02:30:03.968Z,9.661450
2022-08-27T02:31:03.981Z,9.661438
2022-08-27T02:32:03.960Z,9.661379
2022-08-27T02:33:03.952Z,9.661426
2022-08-27T02:34:03.945Z,9.661373
2022-08-27T02:35:04.036Z,9.661461
2022-08-27T02:36:03.918Z,9.661409
2022-08-27T02:37:03.923Z,9.661446
2022-08-27T02:38:03.969Z,9.661439
2022-08-27T02:39:03.892Z,9.661377
2022-08-27T02:40:03.958Z,9.661433
2022-08-27T02:41:03.893Z,9.661435
2022-08-27T02:42:03.891Z,9.661495
2022-08-27T02:43:03.887Z,9.661506
2022-08-27T02:44:03.875Z,9.661517
2022-08-27T02:45:03.863Z,9.661610
2022-08-27T02:46:03.970Z,9.661532
2022-08-27T02:47:03.854Z,9.661431
2022-08-27T02:48:03.901Z,9.661469
2022-08-27T02:49:03.861Z,9.661521
2022-08-27T02:50:03.839Z,9.661572
2022-08-27T02:51:03.919Z,9.661540
2022-08-27T02:52:03.821Z,9.661448
2022-08-27T02:53:03.818Z,9.661402
2022-08-27T02:54:03.832Z,9.661336
2022-08-27T02:55:03.802Z,9.661334
2022-08-27T02:56:03.795Z,9.661387
2022-08-27T02:57:03.809Z,9.661433
2022-08-27T02:58:03.853Z,9.661528
2022-08-27T02:59:03.771Z,9.661519
2022-08-27T03:00:03.779Z,9.661433
2022-08-27T03:01:03.784Z,9.661463
2022-08-27T03:02:03.907Z,9.661557
2022-08-27T03:03:04.210Z,9.661572
2022-08-27T03:04:03.796Z,9.661599
2022-08-27T03:05:03.750Z,9.661556
2022-08-27T03:06:03.757Z,9.661525
2022-08-27T03:07:03.751Z,9.661509
2022-08-27T03:08:03.791Z,9.661606
2022-08-27T03:09:03.734Z,9.661564
2022-08-27T03:10:03.729Z,9.661550
2022-08-27T03:11:03.732Z,9.661427
2022-08-27T03:12:03.735Z,9.661551
2022-08-27T03:13:03.823Z,9.661701
2022-08-27T03:14:03.720Z,9.661738
2022-08-27T03:15:03.688Z,9.661637
2022-08-27T03:16:03.732Z,9.661720
2022-08-27T03:17:03.691Z,9.661873
2022-08-27T03:18:03.731Z,9.661836
2022-08-27T03:19:03.772Z,9.661699
2022-08-27T03:20:03.731Z,9.661475
2022-08-27T03:21:03.682Z,9.661576
2022-08-27T03:22:03.658Z,9.661592
2022-08-27T03:23:03.672Z,9.661520
2022-08-27T03:24:09.599Z,9.661682
2022-08-27T03:25:04.638Z,9.661735
2022-08-27T03:26:03.651Z,9.661779
2022-08-27T03:27:03.641Z,9.661800
2022-08-27T03:28:03.647Z,9.661799
2022-08-27T03:29:03.620Z,9.661691
2022-08-27T03:30:04.193Z,9.661658
2022-08-27T03:31:04.647Z,9.661762
2022-08-27T03:32:03.605Z,9.661863
2022-08-27T03:33:03.618Z,9.661886
2022-08-27T03:34:03.608Z,9.661695
2022-08-27T03:35:03.693Z,9.661665
2022-08-27T03:36:03.606Z,9.661631
2022-08-27T03:37:03.573Z,9.661428
2022-08-27T03:38:03.694Z,9.661441
2022-08-27T03:39:03.575Z,9.661656
2022-08-27T03:40:03.605Z,9.661826
2022-08-27T03:41:03.598Z,9.661888
2022-08-27T03:42:03.550Z,9.661621
2022-08-27T03:43:03.528Z,9.661533
2022-08-27T03:44:03.547Z,9.661542
2022-08-27T03:45:03.527Z,9.661967
2022-08-27T03:46:03.646Z,9.661803
2022-08-27T03:47:03.514Z,9.661580
2022-08-27T03:48:03.530Z,9.661630
2022-08-27T03:49:04.497Z,9.661740
2022-08-27T03:50:03.498Z,9.661868
2022-08-27T03:51:03.487Z,9.661585
2022-08-27T03:52:03.622Z,9.661536
2022-08-27T03:53:03.476Z,9.661514
2022-08-27T03:54:03.488Z,9.661518
2022-08-27T03:55:03.446Z,9.661622
2022-08-27T03:56:03.460Z,9.661596
2022-08-27T03:57:03.484Z,9.661644
2022-08-27T03:58:03.579Z,9.661624
2022-08-27T03:59:03.454Z,9.661635
2022-08-27T04:00:03.437Z,9.661491
2022-08-27T04:01:03.445Z,9.661418
2022-08-27T04:02:03.484Z,9.661513
2022-08-27T04:03:03.597Z,9.661453
2022-08-27T04:04:03.440Z,9.661485
2022-08-27T04:05:03.413Z,9.661510
2022-08-27T04:06:04.395Z,9.661565
2022-08-27T04:07:03.403Z,9.661440
2022-08-27T04:08:03.484Z,9.661555
2022-08-27T04:09:03.401Z,9.661537
2022-08-27T04:10:03.382Z,9.661486
2022-08-27T04:11:03.377Z,9.661522
2022-08-27T04:12:03.376Z,9.661461
2022-08-27T04:13:03.374Z,9.661459
2022-08-27T04:14:03.375Z,9.661460
2022-08-27T04:15:04.365Z,9.661533
2022-08-27T04:16:03.468Z,9.661598
2022-08-27T04:17:03.348Z,9.661568
2022-08-27T04:18:03.467Z,9.661524
2022-08-27T04:19:03.450Z,9.661444
2022-08-27T04:20:24.863Z,9.661482
2022-08-27T04:21:04.321Z,9.661347
2022-08-27T04:22:03.301Z,9.661478
2022-08-27T04:23:03.318Z,9.661513
2022-08-27T04:24:03.307Z,9.661462
2022-08-27T04:25:03.358Z,9.661448
2022-08-27T04:26:03.281Z,9.661551
2022-08-27T04:27:03.273Z,9.661472
2022-08-27T04:28:03.390Z,9.661481
2022-08-27T04:29:03.288Z,9.661386
2022-08-27T04:30:03.371Z,9.661418
2022-08-27T04:31:03.414Z,9.661385
2022-08-27T04:32:03.260Z,9.661432
2022-08-27T04:33:03.243Z,9.661489
2022-08-27T04:34:03.233Z,9.661414
2022-08-27T04:35:03.245Z,9.661551
2022-08-27T04:36:03.366Z,9.661512
2022-08-27T04:37:03.222Z,9.661475
2022-08-27T04:38:03.290Z,9.661468
2022-08-27T04:39:03.198Z,9.661472
2022-08-27T04:40:03.257Z,9.661521
2022-08-27T04:41:03.309Z,9.661468
2022-08-27T04:42:03.208Z,9.661474
2022-08-27T04:43:03.184Z,9.661508
2022-08-27T04:44:03.186Z,9.661539
2022-08-27T04:45:03.176Z,9.661518
2022-08-27T04:46:03.257Z,9.661489
2022-08-27T04:47:03.307Z,9.661523
2022-08-27T04:48:03.212Z,9.661482
2022-08-27T04:49:03.168Z,9.661488
2022-08-27T04:50:04.212Z,9.661473
2022-08-27T04:51:03.139Z,9.661570
2022-08-27T04:52:03.169Z,9.661539
2022-08-27T04:53:03.142Z,9.661641
2022-08-27T04:54:03.129Z,9.661456
2022-08-27T04:55:04.135Z,9.661541
2022-08-27T04:56:03.131Z,9.661528
2022-08-27T04:57:03.161Z,9.661414
2022-08-27T04:58:03.198Z,9.661377
2022-08-27T04:59:03.090Z,9.661519
2022-08-27T05:00:03.090Z,9.661635
2022-08-27T05:01:03.095Z,9.661514
2022-08-27T05:02:03.528Z,9.661403
2022-08-27T05:03:03.093Z,9.661538
2022-08-27T05:04:04.069Z,9.661431
2022-08-27T05:05:03.102Z,9.661647
2022-08-27T05:06:03.055Z,9.661960
2022-08-27T05:07:03.067Z,9.661819
2022-08-27T05:08:03.054Z,9.661524
2022-08-27T05:09:03.077Z,9.661412
2022-08-27T05:10:03.037Z,9.661370
2022-08-27T05:11:03.048Z,9.661313
2022-08-27T05:12:03.021Z,9.661455
2022-08-27T05:13:03.019Z,9.661508
2022-08-27T05:14:03.054Z,9.661441
2022-08-27T05:15:03.013Z,9.661434
2022-08-27T05:16:03.037Z,9.661431
2022-08-27T05:17:03.017Z,9.661446
2022-08-27T05:18:03.008Z,9.661469
2022-08-27T05:19:03.005Z,9.661390
2022-08-27T05:20:03.104Z,9.661519
2022-08-27T05:21:02.982Z,9.661483
2022-08-27T05:22:02.974Z,9.661303
2022-08-27T05:23:02.974Z,9.661479
2022-08-27T05:24:02.975Z,9.661315
2022-08-27T05:25:02.995Z,9.661276
2022-08-27T05:26:02.948Z,9.661459
2022-08-27T05:27:02.938Z,9.661392
2022-08-27T05:28:02.942Z,9.661411
2022-08-27T05:29:02.941Z,9.661515
2022-08-27T05:30:03.945Z,9.661527
2022-08-27T05:31:02.982Z,9.661532
2022-08-27T05:32:02.927Z,9.661547
2022-08-27T05:33:02.930Z,9.661153
2022-08-27T05:34:02.909Z,9.661391
2022-08-27T05:35:03.910Z,9.661612
2022-08-27T05:36:03.016Z,9.661540
2022-08-27T05:37:02.905Z,9.661414
2022-08-27T05:38:02.876Z,9.661582
2022-08-27T05:39:02.877Z,9.661338
2022-08-27T05:40:02.953Z,9.661504
2022-08-27T05:41:02.982Z,9.661539
2022-08-27T05:42:02.864Z,9.661554
2022-08-27T05:43:02.861Z,9.661564
2022-08-27T05:44:13.806Z,9.661416
2022-08-27T05:45:03.843Z,9.661724
2022-08-27T05:46:02.881Z,9.661644
2022-08-27T05:47:02.862Z,9.661806
2022-08-27T05:48:02.881Z,9.661580
2022-08-27T05:49:02.841Z,9.661609
2022-08-27T05:50:02.820Z,9.661568
2022-08-27T05:51:02.863Z,9.661560
2022-08-27T05:52:02.827Z,9.661457
2022-08-27T05:53:02.807Z,9.661472
2022-08-27T05:54:06.766Z,9.661513
2022-08-27T05:55:04.807Z,9.661580
2022-08-27T05:56:02.804Z,9.661810
2022-08-27T05:57:02.773Z,9.661639
2022-08-27T05:58:02.780Z,9.661838
2022-08-27T05:59:02.776Z,9.661712
2022-08-27T06:00:02.779Z,9.661797
2022-08-27T06:01:05.917Z,9.662019
2022-08-27T06:02:03.749Z,9.662036
2022-08-27T06:03:02.860Z,9.662047
2022-08-27T06:04:02.782Z,9.661618
2022-08-27T06:05:02.828Z,9.661738
2022-08-27T06:06:02.715Z,9.661949
2022-08-27T06:07:02.746Z,9.661309
2022-08-27T06:08:02.748Z,9.661463
2022-08-27T06:09:02.765Z,9.661494
2022-08-27T06:10:02.710Z,9.661470
2022-08-27T06:11:02.705Z,9.661484
2022-08-27T06:12:02.713Z,9.661484
2022-08-27T06:13:02.707Z,9.661442
2022-08-27T06:14:02.795Z,9.661279
2022-08-27T06:15:02.681Z,9.661530
2022-08-27T06:16:02.764Z,9.661551
2022-08-27T06:17:02.678Z,9.661353
2022-08-27T06:18:02.654Z,9.661430
2022-08-27T06:19:02.658Z,9.661513
2022-08-27T06:20:02.775Z,9.661578
2022-08-27T06:21:02.644Z,9.661620
2022-08-27T06:22:10.518Z,9.661546
2022-08-27T06:23:03.650Z,9.661528
2022-08-27T06:24:02.628Z,9.661607
2022-08-27T06:25:02.776Z,9.661603
2022-08-27T06:26:02.628Z,9.661557
2022-08-27T06:27:03.380Z,9.661537
2022-08-27T06:28:02.613Z,9.661534
2022-08-27T06:29:02.613Z,9.661542
2022-08-27T06:30:02.613Z,9.661487
2022-08-27T06:31:02.753Z,9.661481
2022-08-27T06:32:02.632Z,9.661511
2022-08-27T06:33:02.597Z,9.661469
2022-08-27T06:34:06.792Z,9.661477
2022-08-27T06:35:02.574Z,9.661461
2022-08-27T06:36:02.676Z,9.661464
2022-08-27T06:37:02.574Z,9.661444
2022-08-27T06:38:02.543Z,9.661402
2022-08-27T06:39:03.373Z,9.661448
2022-08-27T06:40:02.587Z,9.661505
2022-08-27T06:41:02.537Z,9.661531
2022-08-27T06:42:02.557Z,9.661510
2022-08-27T06:43:02.541Z,9.661461
2022-08-27T06:44:02.535Z,9.661448
2022-08-27T06:45:02.531Z,9.661443
2022-08-27T06:46:02.588Z,9.661477
2022-08-27T06:47:02.625Z,9.661505
2022-08-27T06:48:02.512Z,9.661542
2022-08-27T06:49:02.517Z,9.661504
2022-08-27T06:50:02.472Z,9.661482
2022-08-27T06:51:02.493Z,9.661459
2022-08-27T06:52:02.500Z,9.661436
2022-08-27T06:53:02.596Z,9.661469
2022-08-27T06:54:02.472Z,9.661454
2022-08-27T06:55:02.479Z,9.661484
2022-08-27T06:56:02.454Z,9.661433
2022-08-27T06:57:02.445Z,9.661501
2022-08-27T06:58:02.460Z,9.661458
2022-08-27T06:59:02.462Z,9.661495
2022-08-27T07:00:02.453Z,9.661507
2022-08-27T07:01:02.467Z,9.661481
2022-08-27T07:02:02.428Z,9.661447
2022-08-27T07:03:02.427Z,9.661497
2022-08-27T07:04:02.489Z,9.661491
2022-08-27T07:05:02.420Z,9.661375
2022-08-27T07:06:02.385Z,9.661200
2022-08-27T07:07:02.478Z,9.661386
2022-08-27T07:08:02.397Z,9.661411
2022-08-27T07:09:02.500Z,9.661329
2022-08-27T07:10:02.368Z,9.661424
2022-08-27T07:11:02.488Z,9.661320
2022-08-27T07:12:02.379Z,9.661386
2022-08-27T07:13:02.369Z,9.661377
2022-08-27T07:14:02.365Z,9.661574
2022-08-27T07:15:02.471Z,9.661578
2022-08-27T07:16:02.505Z,9.661585
2022-08-27T07:17:02.392Z,9.661784
2022-08-27T07:18:02.322Z,9.661948
2022-08-27T07:19:03.876Z,9.661371
2022-08-27T07:20:02.360Z,9.661437
2022-08-27T07:21:02.357Z,9.661524
2022-08-27T07:22:02.314Z,9.661660
2022-08-27T07:23:02.298Z,9.661454
2022-08-27T07:24:02.304Z,9.661425
2022-08-27T07:25:02.333Z,9.661367
2022-08-27T07:26:02.367Z,9.661450
2022-08-27T07:27:02.287Z,9.661396
2022-08-27T07:28:02.297Z,9.661416
2022-08-27T07:29:02.279Z,9.661514
2022-08-27T07:30:02.260Z,9.661440
2022-08-27T07:31:02.417Z,9.661455
2022-08-27T07:32:02.256Z,9.661448
2022-08-27T07:33:02.266Z,9.661394
2022-08-27T07:34:02.250Z,9.661442
2022-08-27T07:35:02.255Z,9.661543
2022-08-27T07:36:02.289Z,9.661559
2022-08-27T07:37:02.257Z,9.661455
2022-08-27T07:38:02.241Z,9.661396
2022-08-27T07:39:02.292Z,9.661407
2022-08-27T07:40:02.264Z,9.661360
2022-08-27T07:41:02.267Z,9.661468
2022-08-27T07:42:02.312Z,9.661517
2022-08-27T07:43:02.191Z,9.661521
2022-08-27T07:44:02.193Z,9.661455
2022-08-27T07:45:02.191Z,9.661426
2022-08-27T07:46:02.217Z,9.661425
2022-08-27T07:47:02.174Z,9.661366
2022-08-27T07:48:02.275Z,9.661394
2022-08-27T07:49:02.156Z,9.661398
2022-08-27T07:50:02.157Z,9.661396
2022-08-27T07:51:02.160Z,9.661497
2022-08-27T07:52:02.134Z,9.661468
2022-08-27T07:53:02.152Z,9.661456
2022-08-27T07:54:02.139Z,9.661505
2022-08-27T07:55:02.195Z,9.661415
2022-08-27T07:56:02.118Z,9.661565
2022-08-27T07:57:02.125Z,9.661560
2022-08-27T07:58:02.116Z,9.661653
2022-08-27T07:59:02.164Z,9.661579
2022-08-27T08:00:02.095Z,9.661620
2022-08-27T08:01:02.232Z,9.661532
2022-08-27T08:02:02.139Z,9.661472
2022-08-27T08:03:02.088Z,9.661307
2022-08-27T08:04:02.117Z,9.661203
2022-08-27T08:05:02.077Z,9.661456
2022-08-27T08:06:02.057Z,9.661342
2022-08-27T08:07:02.076Z,9.661451
2022-08-27T08:08:02.111Z,9.661515
2022-08-27T08:09:02.066Z,9.661431
2022-08-27T08:10:02.176Z,9.661132
2022-08-27T08:11:02.066Z,9.661066
2022-08-27T08:12:02.045Z,9.661323
2022-08-27T08:13:02.044Z,9.661382
2022-08-27T08:14:02.028Z,9.661469
2022-08-27T08:15:02.160Z,9.661725
2022-08-27T08:16:02.038Z,9.661815
2022-08-27T08:17:02.106Z,9.661814
2022-08-27T08:18:01.999Z,9.661665
2022-08-27T08:19:02.008Z,9.661721
2022-08-27T08:20:19.939Z,9.661980
2022-08-27T08:21:04.027Z,9.661594
2022-08-27T08:22:05.486Z,9.661634
2022-08-27T08:23:01.972Z,9.661628
2022-08-27T08:24:01.998Z,9.661637
2022-08-27T08:25:01.954Z,9.661906
2022-08-27T08:26:01.966Z,9.661947
2022-08-27T08:27:06.899Z,9.662016
2022-08-27T08:28:04.004Z,9.661799
2022-08-27T08:29:01.950Z,9.661635
2022-08-27T08:30:01.930Z,9.661865
2022-08-27T08:31:01.972Z,9.661743
2022-08-27T08:32:01.943Z,9.661663
2022-08-27T08:33:01.909Z,9.661542
2022-08-27T08:34:01.905Z,9.661520
2022-08-27T08:35:01.913Z,9.661592
2022-08-27T08:36:01.910Z,9.661517
2022-08-27T08:37:01.920Z,9.661465
2022-08-27T08:38:01.906Z,9.661457
2022-08-27T08:39:01.880Z,9.661505
2022-08-27T08:40:01.918Z,9.661457
2022-08-27T08:41:01.892Z,9.661372
2022-08-27T08:42:01.919Z,9.661424
2022-08-27T08:43:01.884Z,9.661392
2022-08-27T08:44:05.488Z,9.661414
2022-08-27T08:45:02.845Z,9.661395
2022-08-27T08:46:01.950Z,9.661377
2022-08-27T08:47:01.842Z,9.661325
2022-08-27T08:48:01.843Z,9.661416
2022-08-27T08:49:01.844Z,9.661384
2022-08-27T08:50:01.820Z,9.661386
2022-08-27T08:51:01.859Z,9.661442
2022-08-27T08:52:01.822Z,9.661395
2022-08-27T08:53:01.809Z,9.661374
2022-08-27T08:54:01.791Z,9.661355
2022-08-27T08:55:01.807Z,9.661326
2022-08-27T08:56:01.813Z,9.661279
2022-08-27T08:57:01.799Z,9.661386
2022-08-27T08:58:01.822Z,9.661358
2022-08-27T08:59:01.776Z,9.661323
2022-08-27T09:00:01.782Z,9.661247
2022-08-27T09:01:01.809Z,9.661222
2022-08-27T09:02:01.798Z,9.661329
2022-08-27T09:03:01.753Z,9.661357
2022-08-27T09:04:01.844Z,9.661512
2022-08-27T09:05:01.745Z,9.661388
2022-08-27T09:06:01.776Z,9.661380
2022-08-27T09:07:01.765Z,9.661347
2022-08-27T09:08:28.361Z,9.661269
2022-08-27T09:09:03.764Z,9.661295
2022-08-27T09:10:01.710Z,9.661563
2022-08-27T09:11:01.743Z,9.661476
2022-08-27T09:12:01.721Z,9.661570
2022-08-27T09:13:01.696Z,9.662226
2022-08-27T09:14:01.706Z,9.661936
2022-08-27T09:15:01.703Z,9.661795
2022-08-27T09:16:01.708Z,9.661754
2022-08-27T09:17:01.824Z,9.661578
2022-08-27T09:18:01.702Z,9.661420
2022-08-27T09:19:01.682Z,9.661411
2022-08-27T09:20:01.701Z,9.661386
2022-08-27T09:21:01.662Z,9.661407
2022-08-27T09:22:02.667Z,9.661507
2022-08-27T09:23:01.667Z,9.661542
2022-08-27T09:24:01.646Z,9.661574
2022-08-27T09:25:01.630Z,9.661699
2022-08-27T09:26:01.658Z,9.661694
2022-08-27T09:27:01.638Z,9.661819
2022-08-27T09:28:01.642Z,9.661639
2022-08-27T09:29:01.630Z,9.661529
2022-08-27T09:30:01.611Z,9.661573
2022-08-27T09:31:01.660Z,9.661571
2022-08-27T09:32:01.624Z,9.661617
2022-08-27T09:33:01.587Z,9.661726
2022-08-27T09:34:01.572Z,9.661751
2022-08-27T09:35:02.590Z,9.661788
2022-08-27T09:36:01.591Z,9.661727
2022-08-27T09:37:01.601Z,9.661659
2022-08-27T09:38:01.560Z,9.661616
2022-08-27T09:39:01.564Z,9.661562
2022-08-27T09:40:01.608Z,9.661582
2022-08-27T09:41:01.580Z,9.661624
2022-08-27T09:42:01.567Z,9.661605
2022-08-27T09:43:01.532Z,9.661689
2022-08-27T09:44:01.556Z,9.661422
2022-08-27T09:45:01.535Z,9.661630
2022-08-27T09:46:01.580Z,9.661635
2022-08-27T09:47:02.353Z,9.661674
2022-08-27T09:48:01.529Z,9.661586
2022-08-27T09:49:01.492Z,9.661612
2022-08-27T09:50:01.501Z,9.661544
2022-08-27T09:51:02.526Z,9.661743
2022-08-27T09:52:01.490Z,9.661670
2022-08-27T09:53:01.495Z,9.661556
2022-08-27T09:54:01.480Z,9.661680
2022-08-27T09:55:01.501Z,9.661719
2022-08-27T09:56:01.471Z,9.661531
2022-08-27T09:57:01.499Z,9.661741
2022-08-27T09:58:01.455Z,9.661664
2022-08-27T09:59:01.490Z,9.661592
2022-08-27T10:00:01.451Z,9.662045
2022-08-27T10:01:01.563Z,9.662068
2022-08-27T10:02:01.532Z,9.662073
2022-08-27T10:03:02.430Z,9.662088
2022-08-27T10:04:01.492Z,9.662025
2022-08-27T10:05:01.423Z,9.661874
2022-08-27T10:06:01.436Z,9.661722
2022-08-27T10:07:01.413Z,9.661742
2022-08-27T10:08:01.555Z,9.661880
2022-08-27T10:09:06.509Z,9.661735
2022-08-27T10:10:02.406Z,9.661688
2022-08-27T10:11:01.380Z,9.661524
2022-08-27T10:12:01.380Z,9.661653
2022-08-27T10:13:01.508Z,9.661784
2022-08-27T10:14:02.403Z,9.661856
2022-08-27T10:15:01.377Z,9.662029
2022-08-27T10:16:01.363Z,9.661993
2022-08-27T10:17:01.361Z,9.662050
2022-08-27T10:18:01.360Z,9.661961
2022-08-27T10:19:01.451Z,9.661902
2022-08-27T10:20:01.339Z,9.661945
2022-08-27T10:21:05.557Z,9.661818
2022-08-27T10:22:02.326Z,9.661942
2022-08-27T10:23:01.332Z,9.661820
2022-08-27T10:24:01.357Z,9.661740
2022-08-27T10:25:01.328Z,9.661557
2022-08-27T10:26:01.308Z,9.661441
2022-08-27T10:27:01.294Z,9.661397
2022-08-27T10:28:01.279Z,9.661444
2022-08-27T10:29:01.289Z,9.661576
2022-08-27T10:30:01.301Z,9.661604
2022-08-27T10:31:01.269Z,9.661624
2022-08-27T10:32:01.350Z,9.661522
2022-08-27T10:33:03.845Z,9.661752
2022-08-27T10:34:01.254Z,9.661802
2022-08-27T10:35:01.370Z,9.661582
2022-08-27T10:36:01.251Z,9.661674
2022-08-27T10:37:01.271Z,9.661571
2022-08-27T10:38:02.244Z,9.661569
2022-08-27T10:39:01.236Z,9.661554
2022-08-27T10:40:01.285Z,9.661605
2022-08-27T10:41:01.323Z,9.661654
2022-08-27T10:42:01.221Z,9.661650
2022-08-27T10:43:01.215Z,9.661592
2022-08-27T10:44:01.237Z,9.661645
2022-08-27T10:45:01.225Z,9.661619
2022-08-27T10:46:01.297Z,9.661601
2022-08-27T10:47:01.226Z,9.661581
2022-08-27T10:48:01.948Z,9.661578
2022-08-27T10:49:01.172Z,9.661618
2022-08-27T10:50:01.166Z,9.661572
2022-08-27T10:51:01.158Z,9.661552
2022-08-27T10:52:04.153Z,9.661555
2022-08-27T10:53:02.136Z,9.661612
2022-08-27T10:54:01.136Z,9.661669
2022-08-27T10:55:01.136Z,9.661671
2022-08-27T10:56:01.130Z,9.661682
2022-08-27T10:57:26.195Z,9.661693
2022-08-27T10:58:02.120Z,9.661553
2022-08-27T10:59:01.176Z,9.661577
2022-08-27T11:00:01.105Z,9.661473
2022-08-27T11:01:01.131Z,9.661563
2022-08-27T11:02:01.163Z,9.661563
2022-08-27T11:03:01.137Z,9.661492
2022-08-27T11:04:01.095Z,9.661506
2022-08-27T11:05:01.082Z,9.661521
2022-08-27T11:06:01.070Z,9.661535
2022-08-27T11:07:01.056Z,9.661497
2022-08-27T11:08:01.092Z,9.661497
2022-08-27T11:09:01.067Z,9.661583
2022-08-27T11:10:02.068Z,9.661613
2022-08-27T11:11:13.689Z,9.661630
2022-08-27T11:12:18.395Z,9.661736
2022-08-27T11:13:03.054Z,9.661825
2022-08-27T11:14:01.319Z,9.661677
2022-08-27T11:15:01.043Z,9.661716
2022-08-27T11:16:01.062Z,9.661634
2022-08-27T11:17:01.012Z,9.661482
2022-08-27T11:18:01.016Z,9.661694
2022-08-27T11:19:01.023Z,9.661579
2022-08-27T11:20:00.988Z,9.661663
2022-08-27T11:21:00.981Z,9.661592
2022-08-27T11:22:00.982Z,9.661680
2022-08-27T11:23:00.988Z,9.661770
2022-08-27T11:24:00.998Z,9.661432
2022-08-27T11:25:02.851Z,9.661448
2022-08-27T11:26:02.559Z,9.661572
2022-08-27T11:27:00.970Z,9.661564
2022-08-27T11:28:01.475Z,9.661590
2022-08-27T11:29:00.958Z,9.661740
2022-08-27T11:30:01.082Z,9.661576
2022-08-27T11:31:00.950Z,9.661734
2022-08-27T11:32:00.982Z,9.661869
2022-08-27T11:33:00.914Z,9.661535
2022-08-27T11:34:00.941Z,9.661906
2022-08-27T11:35:01.819Z,9.661805
2022-08-27T11:36:00.904Z,9.661947
2022-08-27T11:37:00.918Z,9.661489
2022-08-27T11:38:00.908Z,9.661868
2022-08-27T11:39:00.995Z,9.661198
2022-08-27T11:40:00.963Z,9.661468
2022-08-27T11:41:00.903Z,9.661504
2022-08-27T11:42:00.893Z,9.661612
2022-08-27T11:43:00.883Z,9.661602
2022-08-27T11:44:00.870Z,9.661499